Time;durP1;ratioP1;P1;durP2;ratioP2;P2;SDS_P1;SDS_P2;PMS_P1;PMS_P2;Temp;Humidity;BMP_temperature;BMP_pressure;BME280_temperature;BME280_humidity;BME280_pressure;Samples;Min_cycle;Max_cycle;Signal;HPM_P1;HPM_P2
2023/07/22 00:02:24;;;;;;;10.82;7.70;;;17.90;95.00;;;;;;5043957;28;20025;-92
2023/07/22 00:04:52;;;;;;;11.43;8.10;;;17.80;94.80;;;;;;5043288;28;20100;-92
2023/07/22 00:07:17;;;;;;;10.90;7.45;;;17.80;94.90;;;;;;5044929;28;20017;-94
2023/07/22 00:09:44;;;;;;;13.25;8.23;;;17.80;95.00;;;;;;5045620;28;20049;-93
2023/07/22 00:12:11;;;;;;;17.42;8.55;;;17.80;95.20;;;;;;5045487;28;20060;-92
2023/07/22 00:14:40;;;;;;;11.95;7.72;;;17.80;95.20;;;;;;5046454;28;20025;-93
2023/07/22 00:17:06;;;;;;;13.50;8.52;;;17.70;95.30;;;;;;5037369;28;20025;-89
2023/07/22 00:19:32;;;;;;;12.32;8.35;;;17.70;95.40;;;;;;5037444;28;20036;-90
2023/07/22 00:21:58;;;;;;;12.02;7.55;;;17.70;95.40;;;;;;5037196;28;20115;-86
2023/07/22 00:24:24;;;;;;;13.38;8.25;;;17.70;95.50;;;;;;5052853;28;20138;-86
2023/07/22 00:26:51;;;;;;;12.93;8.57;;;17.70;95.50;;;;;;5036466;28;20036;-86
2023/07/22 00:29:17;;;;;;;11.35;7.75;;;17.60;95.80;;;;;;5053589;28;20033;-86
2023/07/22 00:31:43;;;;;;;11.23;7.88;;;17.60;95.70;;;;;;5038267;28;20043;-92
2023/07/22 00:34:09;;;;;;;13.77;8.13;;;17.60;95.70;;;;;;5049352;28;20032;-94
2023/07/22 00:36:35;;;;;;;12.40;8.63;;;17.60;95.80;;;;;;5048349;28;20033;-93
2023/07/22 00:39:01;;;;;;;13.13;8.43;;;17.50;95.90;;;;;;5045618;28;20047;-92
2023/07/22 00:41:28;;;;;;;16.00;10.10;;;17.50;95.90;;;;;;5048046;28;20017;-94
2023/07/22 00:43:54;;;;;;;14.15;9.43;;;17.50;96.00;;;;;;5046014;28;20503;-93
2023/07/22 00:46:22;;;;;;;13.05;9.40;;;17.40;96.00;;;;;;5047150;28;20028;-92
2023/07/22 00:48:49;;;;;;;16.67;9.70;;;17.40;96.10;;;;;;5044805;28;20125;-90
2023/07/22 00:51:15;;;;;;;14.15;8.63;;;17.40;96.10;;;;;;5037132;28;20462;-90
2023/07/22 00:53:41;;;;;;;14.00;9.50;;;17.40;96.30;;;;;;5037211;28;20025;-90
2023/07/22 00:56:07;;;;;;;13.70;9.40;;;17.30;96.40;;;;;;5037062;28;20033;-90
2023/07/22 00:58:33;;;;;;;16.48;9.95;;;17.30;96.50;;;;;;5036680;28;20096;-89
2023/07/22 01:00:59;;;;;;;14.70;9.13;;;17.30;96.60;;;;;;5036994;28;20017;-89
2023/07/22 01:03:25;;;;;;;14.43;9.43;;;17.30;96.50;;;;;;5036831;28;20551;-91
2023/07/22 01:05:52;;;;;;;14.05;9.52;;;17.20;96.50;;;;;;5040950;28;20032;-94
2023/07/22 01:08:18;;;;;;;17.60;10.45;;;17.20;96.50;;;;;;5039106;28;20023;-93
2023/07/22 01:10:43;;;;;;;15.80;10.00;;;17.20;96.60;;;;;;5040656;28;20116;-92
2023/07/22 01:13:09;;;;;;;18.83;10.82;;;17.10;96.50;;;;;;5040614;28;20369;-94
2023/07/22 01:15:37;;;;;;;15.75;10.18;;;17.10;96.70;;;;;;5054782;28;20035;-94
2023/07/22 01:18:03;;;;;;;16.60;10.23;;;17.10;97.00;;;;;;5039430;28;20065;-92
2023/07/22 01:20:30;;;;;;;14.63;9.88;;;17.10;96.90;;;;;;5037772;28;20031;-93
2023/07/22 01:22:56;;;;;;;16.15;10.32;;;17.10;97.00;;;;;;5038812;28;20029;-94
2023/07/22 01:25:23;;;;;;;16.20;11.38;;;17.10;97.10;;;;;;5041511;28;20139;-89
2023/07/22 01:27:52;;;;;;;15.30;10.63;;;17.10;97.30;;;;;;5040600;28;20044;-89
2023/07/22 01:30:19;;;;;;;17.88;11.73;;;17.10;97.30;;;;;;5040441;28;20404;-89
2023/07/22 01:32:45;;;;;;;18.42;11.57;;;17.10;97.50;;;;;;5040141;28;20496;-89
2023/07/22 01:35:11;;;;;;;17.77;11.95;;;17.10;97.60;;;;;;5040138;28;20025;-89
2023/07/22 01:37:37;;;;;;;20.20;12.30;;;17.10;97.70;;;;;;5057090;28;20087;-89
2023/07/22 01:40:11;;;;;;;15.73;11.30;;;17.10;97.80;;;;;;5040804;28;20036;-89
2023/07/22 01:42:42;;;;;;;18.10;12.30;;;17.10;97.90;;;;;;5040491;28;20029;-89
2023/07/22 01:45:08;;;;;;;16.20;11.17;;;17.10;98.00;;;;;;5040339;28;20032;-89
2023/07/22 01:47:35;;;;;;;19.65;13.60;;;17.10;98.10;;;;;;5043818;28;20389;-94
2023/07/22 01:50:02;;;;;;;21.20;14.10;;;17.20;98.10;;;;;;5045645;28;20028;-94
2023/07/22 01:52:28;;;;;;;19.52;13.48;;;17.10;98.10;;;;;;5047276;28;20017;-94
2023/07/22 01:54:54;;;;;;;18.90;12.63;;;17.10;98.10;;;;;;5046463;28;20025;-87
2023/07/22 01:57:19;;;;;;;20.50;13.40;;;17.10;98.00;;;;;;5038873;28;20029;-87
2023/07/22 01:59:45;;;;;;;18.38;12.32;;;17.10;98.20;;;;;;5039522;28;20020;-87
2023/07/22 02:02:10;;;;;;;20.58;13.45;;;17.10;98.30;;;;;;5039376;28;20029;-88
2023/07/22 02:04:36;;;;;;;18.85;13.80;;;17.10;98.30;;;;;;5038930;28;20040;-88
2023/07/22 02:07:03;;;;;;;18.88;12.32;;;17.00;98.40;;;;;;5038803;28;20032;-87
2023/07/22 02:09:28;;;;;;;17.08;13.02;;;17.00;98.40;;;;;;5038954;28;20029;-87
2023/07/22 02:11:54;;;;;;;21.17;14.02;;;17.00;98.50;;;;;;5039206;28;20395;-90
2023/07/22 02:14:20;;;;;;;20.67;13.35;;;17.00;98.50;;;;;;5056247;28;20496;-90
2023/07/22 02:16:46;;;;;;;19.30;13.73;;;17.00;98.60;;;;;;5039412;28;20504;-90
2023/07/22 02:19:11;;;;;;;21.38;14.30;;;17.00;98.60;;;;;;5039537;28;20025;-90
2023/07/22 02:21:37;;;;;;;22.52;14.18;;;17.00;98.70;;;;;;5039431;28;20021;-90
2023/07/22 02:24:03;;;;;;;22.17;13.82;;;17.00;98.70;;;;;;5055879;28;20053;-88
2023/07/22 02:26:28;;;;;;;18.83;14.20;;;16.90;98.70;;;;;;5022293;28;20025;-88
2023/07/22 02:28:57;;;;;;;19.20;13.93;;;16.90;98.80;;;;;;5026155;28;20037;-95
2023/07/22 02:31:23;;;;;;;22.08;13.80;;;16.90;98.80;;;;;;5061386;28;20024;-93
2023/07/22 02:33:48;;;;;;;22.48;14.45;;;16.90;98.60;;;;;;5057029;28;20032;-95
2023/07/22 02:36:14;;;;;;;20.77;13.07;;;16.80;98.60;;;;;;5024103;28;20036;-95
2023/07/22 02:38:40;;;;;;;21.80;13.68;;;16.80;98.70;;;;;;5025176;28;20021;-95
2023/07/22 02:41:07;;;;;;;19.92;13.30;;;16.80;98.70;;;;;;5026123;28;20049;-94
2023/07/22 02:43:34;;;;;;;20.63;13.38;;;16.80;98.70;;;;;;5063688;28;20017;-93
2023/07/22 02:46:02;;;;;;;22.85;13.55;;;16.70;98.70;;;;;;5042198;28;20024;-85
2023/07/22 02:48:28;;;;;;;19.65;13.75;;;16.70;98.90;;;;;;5023984;28;20028;-86
2023/07/22 02:50:54;;;;;;;21.98;14.25;;;16.70;98.90;;;;;;5040181;28;20033;-86
2023/07/22 02:53:19;;;;;;;20.27;14.13;;;16.70;99.10;;;;;;5038821;28;20051;-86
2023/07/22 02:55:46;;;;;;;20.65;13.85;;;16.70;99.10;;;;;;5021800;28;20040;-86
2023/07/22 02:58:12;;;;;;;22.52;15.13;;;16.60;99.10;;;;;;5054776;28;20544;-86
2023/07/22 03:00:38;;;;;;;21.08;14.20;;;16.60;99.20;;;;;;5038093;28;20029;-86
2023/07/22 03:03:04;;;;;;;22.73;14.60;;;16.60;99.20;;;;;;5042405;28;20139;-94
2023/07/22 03:05:34;;;;;;;22.88;14.63;;;16.60;99.30;;;;;;5061945;28;20025;-94
2023/07/22 03:08:00;;;;;;;20.90;14.02;;;16.60;99.30;;;;;;5050812;28;20032;-93
2023/07/22 03:10:26;;;;;;;23.33;14.65;;;16.50;99.30;;;;;;5049543;28;20104;-93
2023/07/22 03:12:55;;;;;;;23.65;15.07;;;16.50;99.40;;;;;;5065923;28;20021;-93
2023/07/22 03:15:28;;;;;;;23.23;14.30;;;16.50;99.50;;;;;;5049468;28;20029;-93
2023/07/22 03:17:55;;;;;;;21.98;14.82;;;16.50;99.60;;;;;;5065376;28;20017;-93
2023/07/22 03:20:22;;;;;;;21.80;14.73;;;16.50;99.70;;;;;;5055583;28;20063;-91
2023/07/22 03:22:48;;;;;;;25.60;15.20;;;16.50;99.80;;;;;;5055273;28;20017;-91
2023/07/22 03:25:16;;;;;;;22.92;15.07;;;16.50;99.70;;;;;;5055025;28;20047;-92
2023/07/22 03:27:43;;;;;;;21.88;14.60;;;16.50;99.80;;;;;;5039010;28;20025;-90
2023/07/22 03:30:17;;;;;;;23.38;15.10;;;16.40;99.80;;;;;;5055120;28;20048;-90
2023/07/22 03:32:45;;;;;;;25.10;14.85;;;16.40;99.80;;;;;;5054987;28;20111;-89
2023/07/22 03:35:11;;;;;;;24.30;15.57;;;16.40;99.90;;;;;;5054961;28;20480;-87
2023/07/22 03:37:38;;;;;;;26.38;16.13;;;16.40;99.90;;;;;;5037275;28;20021;-86
2023/07/22 03:40:10;;;;;;;21.92;15.40;;;16.40;99.90;;;;;;5037378;28;20021;-87
2023/07/22 03:42:36;;;;;;;25.40;14.85;;;16.40;99.90;;;;;;5053861;28;20028;-87
2023/07/22 03:45:02;;;;;;;26.10;16.30;;;16.30;99.90;;;;;;5021384;28;20033;-87
2023/07/22 03:47:28;;;;;;;28.20;16.08;;;16.40;99.90;;;;;;5054664;28;20036;-87
2023/07/22 03:49:54;;;;;;;25.27;16.38;;;16.30;99.90;;;;;;5037568;28;20029;-87
2023/07/22 03:52:19;;;;;;;25.35;15.25;;;16.30;99.90;;;;;;5020883;28;20477;-86
2023/07/22 03:54:45;;;;;;;25.83;16.63;;;16.30;99.90;;;;;;5020589;28;20024;-86
2023/07/22 03:57:11;;;;;;;36.25;17.23;;;16.30;99.90;;;;;;5054892;28;20040;-92
2023/07/22 03:59:36;;;;;;;27.20;16.17;;;16.30;99.90;;;;;;5024178;28;20074;-93
2023/07/22 04:02:03;;;;;;;28.23;15.68;;;16.30;99.90;;;;;;5024337;28;20032;-93
2023/07/22 04:04:29;;;;;;;25.83;16.77;;;16.30;99.90;;;;;;5057170;28;20355;-92
2023/07/22 04:06:54;;;;;;;31.20;17.77;;;16.20;99.90;;;;;;5056862;28;20029;-92
2023/07/22 04:09:20;;;;;;;25.80;15.73;;;16.20;99.90;;;;;;5039513;28;20561;-91
2023/07/22 04:11:45;;;;;;;28.23;16.20;;;16.20;99.90;;;;;;5021888;28;20461;-91
2023/07/22 04:14:12;;;;;;;26.73;15.52;;;16.20;99.90;;;;;;5037867;28;20029;-91
2023/07/22 04:16:38;;;;;;;22.90;15.10;;;16.20;99.90;;;;;;5021631;28;20026;-91
2023/07/22 04:19:04;;;;;;;27.38;17.08;;;16.20;99.90;;;;;;5038032;28;20551;-91
2023/07/22 04:21:30;;;;;;;27.05;16.30;;;16.20;99.90;;;;;;5054305;28;20072;-91
2023/07/22 04:23:55;;;;;;;30.25;17.35;;;16.10;99.90;;;;;;5037880;28;20506;-91
2023/07/22 04:26:21;;;;;;;27.02;16.98;;;16.10;99.90;;;;;;5037899;28;20043;-89
2023/07/22 04:28:47;;;;;;;29.33;16.90;;;16.20;99.90;;;;;;5037723;28;20025;-88
2023/07/22 04:31:12;;;;;;;29.90;16.80;;;16.10;99.90;;;;;;5037539;28;20036;-89
2023/07/22 04:33:38;;;;;;;27.48;16.25;;;16.10;99.90;;;;;;5037162;28;20028;-88
2023/07/22 04:36:04;;;;;;;32.25;18.08;;;16.10;99.90;;;;;;5037075;28;20437;-89
2023/07/22 04:38:30;;;;;;;29.70;17.75;;;16.10;99.90;;;;;;5036919;28;20036;-89
2023/07/22 04:40:55;;;;;;;28.08;16.90;;;16.10;99.90;;;;;;5037868;28;20059;-89
2023/07/22 04:43:21;;;;;;;27.33;17.52;;;16.10;99.90;;;;;;5036910;28;20103;-89
2023/07/22 04:45:49;;;;;;;31.02;17.90;;;16.10;99.90;;;;;;5037053;28;20032;-89
2023/07/22 04:48:17;;;;;;;31.15;17.35;;;16.10;99.90;;;;;;5036726;28;20036;-89
2023/07/22 04:50:44;;;;;;;29.02;18.17;;;16.10;99.90;;;;;;5036539;28;20111;-90
2023/07/22 04:53:12;;;;;;;27.27;17.90;;;16.10;99.90;;;;;;5036504;28;20440;-90
2023/07/22 04:55:39;;;;;;;29.50;17.38;;;16.10;99.90;;;;;;5036531;28;20407;-89
2023/07/22 04:58:05;;;;;;;29.13;18.30;;;16.10;99.90;;;;;;5036449;28;20025;-91
2023/07/22 05:00:30;;;;;;;25.80;16.95;;;16.10;99.90;;;;;;5036848;28;20028;-91
2023/07/22 05:02:56;;;;;;;27.45;17.90;;;16.00;99.90;;;;;;5037213;28;20033;-91
2023/07/22 05:05:22;;;;;;;26.83;17.75;;;16.00;99.90;;;;;;5036631;28;20021;-88
2023/07/22 05:07:52;;;;;;;27.02;17.85;;;16.00;99.90;;;;;;5035951;28;20552;-87
2023/07/22 05:10:19;;;;;;;36.00;18.52;;;16.00;99.90;;;;;;5036101;28;20021;-88
2023/07/22 05:12:45;;;;;;;29.30;17.85;;;16.00;99.90;;;;;;5035980;28;20029;-87
2023/07/22 05:15:14;;;;;;;28.00;17.58;;;16.00;99.90;;;;;;5036387;28;20027;-90
2023/07/22 05:17:39;;;;;;;33.28;18.67;;;15.90;99.90;;;;;;5036968;28;20033;-89
2023/07/22 05:20:09;;;;;;;28.67;18.75;;;16.00;99.90;;;;;;5037276;28;20017;-90
2023/07/22 05:22:35;;;;;;;31.00;18.63;;;16.00;99.90;;;;;;5036593;28;20021;-88
2023/07/22 05:25:00;;;;;;;31.27;19.33;;;16.00;99.90;;;;;;5045000;28;20044;-88
2023/07/22 05:27:26;;;;;;;29.10;18.63;;;16.00;99.90;;;;;;5020089;28;20025;-89
2023/07/22 05:29:52;;;;;;;28.02;18.27;;;16.10;99.90;;;;;;5036471;28;20100;-89
2023/07/22 05:32:20;;;;;;;31.15;18.77;;;16.10;99.90;;;;;;5036117;28;20035;-87
2023/07/22 05:34:45;;;;;;;27.27;17.67;;;16.10;99.90;;;;;;5019203;28;20466;-87
2023/07/22 05:37:11;;;;;;;31.90;18.15;;;16.10;99.90;;;;;;5022713;28;20025;-92
2023/07/22 05:39:37;;;;;;;26.48;18.00;;;16.10;99.90;;;;;;5043610;28;20492;-92
2023/07/22 05:42:03;;;;;;;28.20;18.25;;;16.10;99.90;;;;;;5026028;28;20040;-92
2023/07/22 05:44:28;;;;;;;29.67;17.63;;;16.10;99.90;;;;;;5025623;28;20025;-94
2023/07/22 05:46:55;;;;;;;28.20;18.50;;;16.20;99.90;;;;;;5037569;28;20052;-89
2023/07/22 05:49:20;;;;;;;27.95;18.52;;;16.10;99.90;;;;;;5036307;28;20025;-90
2023/07/22 05:51:46;;;;;;;29.55;18.23;;;16.20;99.90;;;;;;5036952;28;20527;-91
2023/07/22 05:54:12;;;;;;;27.45;18.15;;;16.20;99.90;;;;;;5053099;28;20029;-90
2023/07/22 05:56:37;;;;;;;28.83;18.48;;;16.20;99.90;;;;;;5053069;28;20051;-90
2023/07/22 05:59:04;;;;;;;34.75;17.95;;;16.20;99.90;;;;;;5019884;28;20039;-91
2023/07/22 06:01:29;;;;;;;30.35;18.33;;;16.30;99.90;;;;;;5052788;28;20028;-90
2023/07/22 06:03:55;;;;;;;28.25;17.77;;;16.30;99.90;;;;;;5019964;28;20029;-90
2023/07/22 06:06:21;;;;;;;27.42;17.80;;;16.30;99.90;;;;;;5036223;28;20032;-90
2023/07/22 06:08:46;;;;;;;33.13;19.67;;;16.30;99.90;;;;;;5019758;28;20033;-90
2023/07/22 06:11:12;;;;;;;32.47;20.27;;;16.40;99.90;;;;;;5020983;28;20037;-91
2023/07/22 06:13:38;;;;;;;31.08;19.20;;;16.40;99.90;;;;;;5039902;28;20032;-90
2023/07/22 06:16:03;;;;;;;31.98;19.05;;;16.40;99.90;;;;;;5024724;28;20040;-91
2023/07/22 06:18:29;;;;;;;32.17;19.65;;;16.50;99.90;;;;;;5023611;28;20082;-90
2023/07/22 06:20:55;;;;;;;29.88;17.88;;;16.50;99.90;;;;;;5023451;28;20029;-91
2023/07/22 06:23:20;;;;;;;34.10;19.85;;;16.60;99.90;;;;;;5023565;28;20603;-90
2023/07/22 06:25:46;;;;;;;30.52;19.55;;;16.60;99.90;;;;;;5056640;28;20055;-91
2023/07/22 06:28:12;;;;;;;26.85;17.65;;;16.70;99.90;;;;;;5044386;28;20500;-91
2023/07/22 06:30:37;;;;;;;28.17;17.52;;;16.70;99.90;;;;;;5050616;28;20021;-90
2023/07/22 06:33:03;;;;;;;32.17;18.55;;;16.70;99.90;;;;;;5050988;28;20072;-90
2023/07/22 06:35:29;;;;;;;31.25;18.30;;;16.70;99.90;;;;;;5059455;28;20108;-90
2023/07/22 06:37:54;;;;;;;28.48;18.23;;;16.80;99.90;;;;;;5053479;28;20541;-91
2023/07/22 06:40:20;;;;;;;32.78;19.23;;;16.80;99.90;;;;;;5039037;28;20033;-89
2023/07/22 06:42:46;;;;;;;28.10;17.02;;;16.80;99.90;;;;;;5055793;28;20033;-89
2023/07/22 06:45:11;;;;;;;30.75;17.30;;;16.90;99.90;;;;;;5038767;28;20021;-89
2023/07/22 06:47:37;;;;;;;29.88;18.50;;;16.90;99.90;;;;;;5038522;28;20021;-88
2023/07/22 06:50:07;;;;;;;32.03;19.02;;;16.90;99.90;;;;;;5038818;28;20037;-88
2023/07/22 06:52:32;;;;;;;28.02;17.98;;;16.90;99.90;;;;;;5038404;28;20025;-88
2023/07/22 06:54:58;;;;;;;29.20;17.35;;;17.00;99.90;;;;;;5038775;28;20040;-90
2023/07/22 06:57:25;;;;;;;26.20;16.85;;;17.00;99.90;;;;;;5038924;28;20107;-90
2023/07/22 06:59:54;;;;;;;26.60;17.05;;;17.10;99.90;;;;;;5040531;28;20017;-89
2023/07/22 07:02:21;;;;;;;30.80;18.60;;;17.20;99.90;;;;;;5039451;28;20093;-90
2023/07/22 07:04:46;;;;;;;26.85;17.42;;;17.20;99.90;;;;;;5038615;28;20052;-90
2023/07/22 07:07:13;;;;;;;29.75;17.60;;;17.20;99.90;;;;;;5038844;28;20074;-89
2023/07/22 07:09:39;;;;;;;32.58;18.23;;;17.30;99.90;;;;;;5039072;28;20040;-88
2023/07/22 07:12:06;;;;;;;26.77;17.30;;;17.40;99.90;;;;;;5038786;28;20025;-89
2023/07/22 07:14:36;;;;;;;28.27;17.20;;;17.40;99.90;;;;;;5038714;28;20029;-90
2023/07/22 07:17:02;;;;;;;26.90;16.95;;;17.50;99.90;;;;;;5038611;28;20405;-90
2023/07/22 07:19:28;;;;;;;30.67;17.10;;;17.50;99.90;;;;;;5038523;28;20091;-89
2023/07/22 07:21:54;;;;;;;27.58;16.67;;;17.50;99.90;;;;;;5037963;28;20037;-89
2023/07/22 07:24:20;;;;;;;25.45;15.65;;;17.60;99.90;;;;;;5040918;28;20087;-89
2023/07/22 07:26:46;;;;;;;24.23;16.00;;;17.70;99.90;;;;;;5038362;28;20607;-89
2023/07/22 07:29:12;;;;;;;26.50;15.20;;;17.70;99.90;;;;;;5055683;28;20028;-89
2023/07/22 07:31:38;;;;;;;25.70;15.95;;;17.70;99.90;;;;;;5055411;28;20021;-90
2023/07/22 07:34:04;;;;;;;24.92;16.25;;;17.80;99.90;;;;;;5038733;28;20024;-90
2023/07/22 07:36:34;;;;;;;24.05;14.52;;;17.80;99.90;;;;;;5039155;28;20374;-91
2023/07/22 07:38:59;;;;;;;23.25;15.18;;;17.90;99.90;;;;;;5039367;28;20036;-90
2023/07/22 07:41:25;;;;;;;22.13;14.43;;;18.00;99.90;;;;;;5022864;28;20025;-90
2023/07/22 07:43:51;;;;;;;23.55;14.68;;;18.00;99.90;;;;;;5055642;28;20053;-92
2023/07/22 07:46:21;;;;;;;25.20;13.95;;;18.10;99.90;;;;;;5038117;28;20032;-87
2023/07/22 07:48:52;;;;;;;21.35;13.82;;;18.10;99.90;;;;;;5053662;28;20123;-87
2023/07/22 07:51:19;;;;;;;22.90;15.23;;;18.10;99.90;;;;;;5053787;28;20017;-87
2023/07/22 07:53:49;;;;;;;21.40;14.43;;;18.10;99.90;;;;;;5053646;28;20511;-87
2023/07/22 07:56:15;;;;;;;19.27;13.45;;;18.20;99.90;;;;;;5053672;28;20025;-86
2023/07/22 07:58:41;;;;;;;22.92;14.68;;;18.20;99.90;;;;;;5037391;28;20033;-86
2023/07/22 08:01:07;;;;;;;20.40;13.90;;;18.30;99.90;;;;;;5053572;28;20112;-86
2023/07/22 08:03:34;;;;;;;19.85;13.75;;;18.30;99.90;;;;;;5054415;28;20442;-90
2023/07/22 08:06:01;;;;;;;22.30;14.40;;;18.40;99.90;;;;;;5054388;28;20052;-90
2023/07/22 08:08:27;;;;;;;21.73;13.50;;;18.50;99.90;;;;;;5054130;28;20021;-90
2023/07/22 08:11:03;;;;;;;21.35;13.60;;;18.50;99.90;;;;;;5037531;28;20025;-91
2023/07/22 08:13:31;;;;;;;23.17;14.00;;;18.50;99.90;;;;;;5054502;28;20101;-90
2023/07/22 08:16:01;;;;;;;26.08;14.82;;;18.50;99.90;;;;;;5037719;28;20027;-91
2023/07/22 08:18:26;;;;;;;17.98;12.40;;;18.60;99.90;;;;;;5053983;28;20461;-87
2023/07/22 08:20:53;;;;;;;18.25;11.45;;;18.60;99.90;;;;;;5020694;28;20036;-87
2023/07/22 08:23:19;;;;;;;22.75;12.13;;;18.60;99.90;;;;;;5036968;28;20488;-87
2023/07/22 08:25:45;;;;;;;23.17;12.82;;;18.60;99.90;;;;;;5052911;28;20049;-91
2023/07/22 08:28:11;;;;;;;18.92;12.48;;;18.70;99.90;;;;;;5037293;28;20036;-90
2023/07/22 08:30:37;;;;;;;21.90;12.00;;;18.70;99.90;;;;;;5037240;28;20028;-90
2023/07/22 08:33:02;;;;;;;20.13;12.50;;;18.80;99.90;;;;;;5020600;28;20037;-90
2023/07/22 08:35:28;;;;;;;18.35;12.52;;;18.80;99.90;;;;;;5036935;28;20041;-90
2023/07/22 08:37:54;;;;;;;18.25;11.32;;;18.90;99.90;;;;;;5021146;28;20394;-90
2023/07/22 08:40:20;;;;;;;20.40;12.15;;;18.90;99.90;;;;;;5020115;28;20123;-87
2023/07/22 08:42:50;;;;;;;18.77;11.43;;;18.90;99.90;;;;;;5036352;28;20086;-87
2023/07/22 08:45:16;;;;;;;20.50;12.68;;;19.00;99.90;;;;;;5052575;28;20063;-86
2023/07/22 08:47:51;;;;;;;21.92;12.20;;;19.00;99.90;;;;;;5036054;28;20363;-87
2023/07/22 08:50:21;;;;;;;24.77;12.60;;;19.00;99.90;;;;;;5036043;28;20120;-86
2023/07/22 08:52:47;;;;;;;;;;;19.10;99.90;;;;;;5057201;28;20028;-94
2023/07/22 08:55:14;;;;;;;18.02;11.57;;;19.10;99.90;;;;;;5060856;28;19908;-93
2023/07/22 08:57:41;;;;;;;19.50;11.48;;;19.10;99.60;;;;;;5064729;28;20029;-95
2023/07/22 09:00:09;;;;;;;22.48;11.30;;;19.10;99.20;;;;;;5062547;28;20021;-93
2023/07/22 09:02:36;;;;;;;16.75;11.15;;;19.10;99.40;;;;;;5058365;28;20017;-94
2023/07/22 09:05:02;;;;;;;20.23;11.00;;;19.10;99.30;;;;;;5054987;28;20013;-94
2023/07/22 09:07:31;;;;;;;18.98;10.90;;;19.20;99.30;;;;;;5054048;28;20025;-94
2023/07/22 09:09:58;;;;;;;16.58;10.02;;;19.20;99.30;;;;;;5052862;28;20104;-89
2023/07/22 09:12:24;;;;;;;16.25;9.68;;;19.20;99.00;;;;;;5052922;28;20059;-89
2023/07/22 09:14:50;;;;;;;17.05;9.13;;;19.30;99.00;;;;;;5036219;28;20017;-89
2023/07/22 09:17:16;;;;;;;15.90;9.32;;;19.30;98.10;;;;;;5052870;28;20036;-89
2023/07/22 09:19:42;;;;;;;21.85;10.15;;;19.30;98.10;;;;;;5052692;28;20037;-88
2023/07/22 09:22:08;;;;;;;18.65;9.32;;;19.30;98.40;;;;;;5019558;28;20037;-88
2023/07/22 09:24:33;;;;;;;14.98;8.57;;;19.30;98.30;;;;;;5018931;28;20056;-90
2023/07/22 09:27:00;;;;;;;12.52;7.60;;;19.40;98.10;;;;;;5040861;28;20056;-90
2023/07/22 09:29:44;;;;;;;16.70;7.65;;;19.40;97.90;;;;;;5036708;28;20036;-89
2023/07/22 09:32:10;;;;;;;14.20;7.43;;;19.50;97.80;;;;;;5032755;28;20143;-89
2023/07/22 09:34:36;;;;;;;13.15;6.85;;;19.50;97.70;;;;;;5032728;28;20466;-89
2023/07/22 09:37:03;;;;;;;10.88;6.20;;;19.60;97.60;;;;;;5016526;28;20032;-91
2023/07/22 09:39:29;;;;;;;11.82;7.10;;;19.60;97.60;;;;;;5017041;28;20026;-92
2023/07/22 09:41:55;;;;;;;12.25;6.93;;;19.70;97.40;;;;;;5016771;28;20500;-91
2023/07/22 09:44:22;;;;;;;15.77;7.78;;;19.70;97.60;;;;;;5016521;28;20021;-91
2023/07/22 09:46:48;;;;;;;12.43;7.45;;;19.70;97.60;;;;;;5020242;28;20038;-85
2023/07/22 09:49:16;;;;;;;13.88;7.38;;;19.70;97.30;;;;;;5019419;28;20029;-84
2023/07/22 09:51:42;;;;;;;11.00;6.75;;;19.80;97.20;;;;;;5019688;28;20112;-85
2023/07/22 09:54:08;;;;;;;10.43;6.53;;;19.90;97.40;;;;;;5019272;28;20054;-85
2023/07/22 09:56:45;;;;;;;10.40;5.47;;;19.90;97.30;;;;;;5035880;28;20028;-85
2023/07/22 09:59:11;;;;;;;11.35;5.50;;;19.90;97.10;;;;;;5019351;28;20036;-85
2023/07/22 10:01:41;;;;;;;9.80;5.97;;;20.00;96.70;;;;;;5019254;28;20029;-85
2023/07/22 10:04:08;;;;;;;10.82;5.88;;;20.10;96.20;;;;;;5019135;28;20021;-85
2023/07/22 10:06:34;;;;;;;10.55;5.95;;;20.10;96.40;;;;;;5019237;28;20030;-85
2023/07/22 10:09:07;;;;;;;11.15;6.07;;;20.10;96.20;;;;;;5019027;28;20032;-85
2023/07/22 10:11:36;;;;;;;10.43;5.95;;;20.20;95.60;;;;;;5018892;28;20037;-85
2023/07/22 10:14:02;;;;;;;9.68;5.57;;;20.10;95.90;;;;;;5019069;28;20033;-88
2023/07/22 10:16:28;;;;;;;13.52;6.00;;;20.20;95.50;;;;;;5036900;28;20029;-85
2023/07/22 10:18:55;;;;;;;15.88;5.63;;;20.20;95.70;;;;;;5018796;28;20559;-84
2023/07/22 10:21:21;;;;;;;9.55;5.72;;;20.20;95.50;;;;;;5034735;28;20112;-85
2023/07/22 10:23:48;;;;;;;9.52;6.03;;;20.20;94.80;;;;;;5018725;28;20034;-85
2023/07/22 10:26:17;;;;;;;9.27;5.80;;;20.20;94.90;;;;;;5034705;28;20046;-85
2023/07/22 10:28:46;;;;;;;9.23;5.72;;;20.10;94.90;;;;;;5035197;28;20021;-84
2023/07/22 10:31:12;;;;;;;10.70;6.53;;;20.10;95.10;;;;;;5035058;28;20069;-85
2023/07/22 10:33:38;;;;;;;10.60;5.72;;;20.10;95.20;;;;;;5052120;28;20022;-84
2023/07/22 10:36:05;;;;;;;9.93;5.65;;;20.20;95.10;;;;;;5052448;28;20043;-85
2023/07/22 10:38:32;;;;;;;7.78;4.95;;;20.30;95.50;;;;;;5036590;28;20025;-91
2023/07/22 10:40:58;;;;;;;9.63;5.43;;;20.30;95.40;;;;;;5036963;28;20030;-92
2023/07/22 10:43:26;;;;;;;11.93;5.05;;;20.30;94.70;;;;;;5036622;28;20378;-91
2023/07/22 10:46:05;;;;;;;8.80;4.63;;;20.40;94.30;;;;;;5036145;28;20087;-91
2023/07/22 10:48:39;;;;;;;9.57;4.75;;;20.40;94.50;;;;;;5035952;28;20029;-85
2023/07/22 10:51:10;;;;;;;8.75;5.28;;;20.50;94.20;;;;;;5035073;28;20374;-85
2023/07/22 10:53:43;;;;;;;;;;;20.50;94.40;;;;;;5035276;28;20079;-85
2023/07/22 10:56:09;;;;;;;6.75;4.32;;;20.50;94.50;;;;;;5043399;28;19915;-85
2023/07/22 10:58:58;;;;;;;8.20;4.43;;;20.50;94.10;;;;;;5051342;28;20109;-85
2023/07/22 11:01:30;;;;;;;11.00;4.88;;;20.50;93.90;;;;;;5049477;28;20454;-85
2023/07/22 11:04:10;;;;;;;9.82;4.88;;;20.50;93.30;;;;;;5054817;28;20492;-85
2023/07/22 11:06:40;;;;;;;9.63;4.45;;;20.50;93.60;;;;;;5054953;28;20048;-89
2023/07/22 11:09:06;;;;;;;7.63;4.30;;;20.50;93.50;;;;;;5055061;28;20417;-89
2023/07/22 11:11:45;;;;;;;8.10;4.15;;;20.50;93.30;;;;;;5071692;28;20031;-90
2023/07/22 11:14:34;;;;;;;10.18;4.97;;;20.50;92.50;;;;;;5055418;28;20036;-90
2023/07/22 11:17:05;;;;;;;9.63;4.70;;;20.40;92.90;;;;;;5055667;28;20064;-90
2023/07/22 11:19:33;;;;;;;8.75;4.47;;;20.40;92.70;;;;;;5056870;28;20488;-91
2023/07/22 11:21:59;;;;;;;8.65;4.45;;;20.40;92.90;;;;;;5054883;28;20029;-85
2023/07/22 11:24:25;;;;;;;10.10;5.10;;;20.40;92.90;;;;;;5053611;28;20045;-86
2023/07/22 11:26:52;;;;;;;8.70;4.60;;;20.40;93.10;;;;;;5036003;28;20042;-86
2023/07/22 11:29:19;;;;;;;9.85;4.43;;;20.40;93.00;;;;;;5054069;28;20025;-85
2023/07/22 11:31:46;;;;;;;9.52;4.55;;;20.40;93.00;;;;;;5070630;28;20433;-85
2023/07/22 11:34:14;;;;;;;10.35;4.78;;;20.40;93.00;;;;;;5070445;28;20453;-85
2023/07/22 11:36:40;;;;;;;8.50;4.07;;;20.40;92.90;;;;;;5053910;28;20044;-85
2023/07/22 11:39:12;;;;;;;8.70;4.50;;;20.40;92.70;;;;;;5054323;28;20029;-90
2023/07/22 11:41:37;;;;;;;8.35;3.88;;;20.40;92.80;;;;;;5055415;28;20017;-90
2023/07/22 11:44:14;;;;;;;8.95;4.13;;;20.40;92.90;;;;;;5054799;28;20123;-90
2023/07/22 11:47:00;;;;;;;8.90;4.25;;;20.40;93.00;;;;;;5054255;28;20102;-89
2023/07/22 11:49:30;;;;;;;8.00;3.72;;;20.50;93.40;;;;;;5054116;28;20032;-89
2023/07/22 11:52:04;;;;;;;6.50;3.28;;;20.50;93.30;;;;;;5055331;28;20021;-89
2023/07/22 11:54:34;;;;;;;6.30;3.20;;;20.60;93.30;;;;;;5053908;28;20017;-89
2023/07/22 11:57:29;;;;;;;6.78;3.30;;;20.60;93.20;;;;;;5055138;28;20032;-93
2023/07/22 12:00:09;;;;;;;7.22;3.22;;;20.70;92.70;;;;;;5050505;28;20049;-87
2023/07/22 12:02:36;;;;;;;11.20;3.45;;;20.60;92.80;;;;;;5054023;28;20021;-90
2023/07/22 12:05:05;;;;;;;8.65;3.50;;;20.60;92.80;;;;;;5053848;28;20040;-88
2023/07/22 12:07:36;;;;;;;7.45;3.25;;;20.60;93.20;;;;;;5053270;28;20094;-88
2023/07/22 12:10:06;;;;;;;9.10;3.20;;;20.60;93.40;;;;;;5052897;28;20025;-90
2023/07/22 12:12:36;;;;;;;4.97;2.47;;;20.60;93.60;;;;;;5055252;28;20071;-90
2023/07/22 12:15:23;;;;;;;7.15;2.67;;;20.60;93.20;;;;;;5055236;28;20021;-89
2023/07/22 12:17:51;;;;;;;6.47;2.95;;;20.60;92.80;;;;;;5055524;28;20029;-89
2023/07/22 12:20:18;;;;;;;6.68;2.97;;;20.70;93.10;;;;;;5053876;28;20024;-87
2023/07/22 12:22:43;;;;;;;6.65;3.10;;;20.70;93.00;;;;;;5053282;28;20029;-89
2023/07/22 12:25:09;;;;;;;5.47;2.60;;;20.80;92.60;;;;;;5071183;28;20028;-92
2023/07/22 12:27:37;;;;;;;8.23;2.90;;;20.80;92.30;;;;;;5056444;28;20072;-95
2023/07/22 12:30:03;;;;;;;6.50;2.55;;;20.90;92.20;;;;;;5057040;28;20157;-92
2023/07/22 12:32:29;;;;;;;4.25;2.22;;;21.00;92.10;;;;;;5059030;28;20462;-96
2023/07/22 12:34:54;;;;;;;7.10;2.63;;;20.90;91.50;;;;;;5059833;28;20029;-92